createdAt,value
2022-09-01T00:04:31.062Z,4.10
2022-09-01T00:08:40.634Z,3.70
2022-09-01T00:12:48.927Z,3.30
2022-09-01T00:16:58.734Z,3.40
2022-09-01T00:21:07.175Z,3.70
2022-09-01T00:25:15.662Z,3.60
2022-09-01T00:29:25.185Z,3.40
2022-09-01T00:33:35.564Z,3.40
2022-09-01T00:37:43.734Z,3.00
2022-09-01T00:41:51.978Z,3.40
2022-09-01T00:46:01.281Z,3.20
2022-09-01T00:50:12.014Z,3.50
2022-09-01T00:54:23.884Z,3.10
2022-09-01T00:58:33.591Z,3.20
2022-09-01T01:02:45.283Z,3.40
2022-09-01T01:06:59.208Z,3.30
2022-09-01T01:11:09.454Z,3.10
2022-09-01T01:15:18.298Z,3.30
2022-09-01T01:19:53.474Z,3.30
2022-09-01T01:24:07.287Z,3.30
2022-09-01T01:28:18.805Z,3.30
2022-09-01T01:32:29.699Z,3.50
2022-09-01T01:36:40.435Z,2.90
2022-09-01T01:40:49.951Z,3.20
2022-09-01T01:44:59.797Z,3.20
2022-09-01T01:49:08.476Z,3.10
2022-09-01T01:53:19.599Z,3.50
2022-09-01T01:57:32.229Z,3.60
2022-09-01T02:01:43.264Z,3.40
2022-09-01T02:05:54.590Z,3.70
2022-09-01T02:10:03.489Z,3.50
2022-09-01T02:14:13.927Z,3.20
2022-09-01T02:18:26.471Z,3.50
2022-09-01T02:22:35.036Z,3.50
2022-09-01T02:26:47.742Z,3.20
2022-09-01T02:30:58.045Z,3.20
2022-09-01T02:35:10.688Z,3.40
2022-09-01T02:39:20.799Z,3.00
2022-09-01T02:43:30.299Z,3.30
2022-09-01T02:47:42.579Z,3.20
2022-09-01T02:51:54.346Z,3.80
2022-09-01T02:56:02.676Z,3.40
2022-09-01T03:00:23.502Z,3.40
2022-09-01T03:04:35.480Z,3.50
2022-09-01T03:08:44.155Z,3.20
2022-09-01T03:12:52.027Z,3.30
2022-09-01T03:17:01.106Z,3.20
2022-09-01T03:21:10.384Z,2.90
2022-09-01T03:25:19.692Z,3.00
2022-09-01T03:29:28.130Z,3.30
2022-09-01T03:33:36.901Z,3.10
2022-09-01T03:37:48.159Z,3.10
2022-09-01T03:41:58.421Z,3.10
2022-09-01T03:46:06.851Z,3.70
2022-09-01T03:50:21.098Z,3.00
2022-09-01T03:54:30.834Z,3.10
2022-09-01T03:58:39.235Z,3.80
2022-09-01T04:02:48.564Z,3.30
2022-09-01T04:07:04.318Z,3.40
2022-09-01T04:11:19.083Z,4.10
2022-09-01T04:15:27.788Z,3.40
2022-09-01T04:19:39.606Z,3.50
2022-09-01T04:23:49.196Z,3.50
2022-09-01T04:27:59.095Z,3.40
2022-09-01T04:32:13.375Z,3.70
2022-09-01T04:36:26.830Z,3.50
2022-09-01T04:40:36.751Z,3.50
2022-09-01T04:44:47.377Z,4.20
2022-09-01T04:48:57.947Z,3.40
2022-09-01T04:53:07.418Z,4.00
2022-09-01T04:57:15.610Z,3.40
2022-09-01T05:01:27.238Z,3.50
2022-09-01T05:05:46.708Z,4.10
2022-09-01T05:10:01.369Z,3.90
2022-09-01T05:14:19.158Z,4.40
2022-09-01T05:18:30.142Z,3.70
2022-09-01T05:22:42.286Z,3.80
2022-09-01T05:26:54.330Z,4.10
2022-09-01T05:31:10.347Z,4.60
2022-09-01T05:35:32.571Z,4.50
2022-09-01T05:39:44.086Z,4.40
2022-09-01T05:44:00.086Z,4.30
2022-09-01T05:48:22.499Z,3.70
2022-09-01T05:52:31.954Z,4.00
2022-09-01T05:56:47.556Z,4.90
2022-09-01T06:01:02.652Z,4.30
2022-09-01T06:05:18.281Z,4.80
2022-09-01T06:09:31.142Z,4.90
2022-09-01T06:13:42.668Z,4.80
2022-09-01T06:17:57.447Z,4.90
2022-09-01T06:22:10.905Z,3.90
2022-09-01T06:26:30.191Z,3.40
2022-09-01T06:30:40.657Z,3.30
2022-09-01T06:34:51.527Z,3.50
2022-09-01T06:39:02.838Z,3.30
2022-09-01T06:43:12.983Z,3.80
2022-09-01T06:47:24.521Z,3.80
2022-09-01T06:51:34.562Z,4.40
2022-09-01T06:55:51.044Z,3.70
2022-09-01T07:00:04.693Z,3.20
2022-09-01T07:04:17.552Z,3.30
2022-09-01T07:13:09.495Z,3.40
2022-09-01T07:17:25.591Z,3.30
2022-09-01T07:21:40.817Z,3.10
2022-09-01T07:26:02.730Z,3.80
2022-09-01T07:30:17.792Z,3.20
2022-09-01T07:34:39.766Z,2.90
2022-09-01T07:39:49.010Z,3.40
2022-09-01T07:43:29.633Z,2.90
2022-09-01T07:47:53.607Z,3.00
2022-09-01T07:52:07.824Z,3.00
2022-09-01T07:56:26.918Z,3.00
2022-09-01T08:00:40.520Z,3.00
2022-09-01T08:04:49.274Z,2.90
2022-09-01T08:08:58.730Z,3.00
2022-09-01T08:13:07.864Z,2.80
2022-09-01T08:17:17.984Z,3.10
2022-09-01T08:21:43.777Z,3.00
2022-09-01T08:26:06.265Z,2.70
2022-09-01T08:30:18.341Z,2.60
2022-09-01T08:34:35.761Z,2.30
2022-09-01T08:38:48.075Z,2.40
2022-09-01T08:43:13.168Z,2.10
2022-09-01T08:47:58.369Z,2.10
2022-09-01T08:52:13.438Z,2.20
2022-09-01T08:56:31.034Z,1.90
2022-09-01T09:00:46.668Z,1.60
2022-09-01T09:05:30.064Z,1.20
2022-09-01T09:09:53.840Z,1.60
2022-09-01T09:14:11.642Z,1.40
2022-09-01T09:18:39.959Z,1.40
2022-09-01T09:22:53.234Z,1.30
2022-09-01T09:27:03.214Z,1.50
2022-09-01T09:31:35.887Z,1.30
2022-09-01T09:35:48.833Z,1.40
2022-09-01T09:40:16.444Z,1.40
2022-09-01T09:44:30.904Z,1.50
2022-09-01T09:48:42.252Z,1.40
2022-09-01T09:52:52.374Z,1.30
2022-09-01T09:57:14.775Z,1.30
2022-09-01T10:01:33.907Z,1.20
2022-09-01T10:05:51.049Z,1.40
2022-09-01T10:10:06.955Z,1.30
2022-09-01T10:14:35.525Z,1.40
2022-09-01T10:19:07.139Z,1.50
2022-09-01T10:23:27.421Z,1.30
2022-09-01T10:27:42.065Z,1.40
2022-09-01T10:32:08.529Z,1.40
2022-09-01T10:36:24.652Z,1.10
2022-09-01T10:40:49.506Z,1.30
2022-09-01T10:45:02.674Z,1.40
2022-09-01T10:49:25.236Z,1.20
2022-09-01T10:53:47.037Z,1.20
2022-09-01T10:58:08.949Z,1.20
2022-09-01T11:02:35.768Z,1.40
2022-09-01T11:07:44.414Z,1.20
2022-09-01T11:11:34.595Z,1.10
2022-09-01T11:15:45.795Z,1.10
2022-09-01T11:20:08.197Z,0.90
2022-09-01T11:24:58.112Z,0.90
2022-09-01T11:29:56.234Z,0.90
2022-09-01T11:34:23.576Z,1.10
2022-09-01T11:38:34.440Z,1.10
2022-09-01T11:42:46.771Z,0.90
2022-09-01T11:46:59.839Z,1.00
2022-09-01T11:51:14.739Z,0.90
2022-09-01T11:55:32.041Z,0.80
2022-09-01T11:59:40.971Z,0.90
2022-09-01T12:03:50.382Z,0.80
2022-09-01T12:07:59.576Z,0.90
2022-09-01T12:12:10.787Z,0.90
2022-09-01T12:16:24.459Z,0.80
2022-09-01T12:20:39.008Z,0.90
2022-09-01T12:24:50.797Z,1.00
2022-09-01T12:29:00.125Z,0.90
2022-09-01T12:33:27.256Z,1.00
2022-09-01T12:37:35.330Z,1.00
2022-09-01T12:41:43.321Z,1.00
2022-09-01T12:45:51.852Z,1.00
2022-09-01T12:50:00.193Z,0.90
2022-09-01T12:54:09.393Z,1.10
2022-09-01T12:58:26.097Z,0.70
2022-09-01T13:02:38.616Z,0.90
2022-09-01T13:06:47.985Z,0.70
2022-09-01T13:10:58.719Z,1.10
2022-09-01T13:15:07.995Z,0.70
2022-09-01T13:19:24.028Z,0.80
2022-09-01T13:23:35.282Z,0.80
2022-09-01T13:27:45.080Z,1.00
2022-09-01T13:40:52.383Z,0.80
2022-09-01T13:45:01.459Z,0.80
2022-09-01T13:53:37.479Z,0.80
2022-09-01T13:57:45.657Z,0.70
2022-09-01T14:01:55.794Z,0.80
2022-09-01T14:06:05.343Z,0.90
2022-09-01T14:10:15.800Z,0.90
2022-09-01T14:14:25.148Z,0.80
2022-09-01T14:18:37.438Z,1.00
2022-09-01T14:22:46.987Z,0.70
2022-09-01T14:26:55.236Z,0.70
2022-09-01T14:31:06.029Z,0.80
2022-09-01T14:35:15.080Z,0.70
2022-09-01T14:39:25.316Z,0.90
2022-09-01T14:43:37.169Z,0.90
2022-09-01T14:47:59.664Z,0.90
2022-09-01T14:52:24.528Z,0.80
2022-09-01T15:01:34.703Z,0.90
2022-09-01T15:10:46.279Z,0.80
2022-09-01T15:15:09.255Z,0.80
2022-09-01T15:19:30.296Z,1.10
2022-09-01T15:23:56.135Z,1.00
2022-09-01T15:28:08.929Z,0.90
2022-09-01T15:32:20.928Z,0.90
2022-09-01T15:36:48.561Z,0.80
2022-09-01T15:41:06.744Z,0.80
2022-09-01T15:45:17.154Z,0.90
2022-09-01T15:49:26.151Z,0.80
2022-09-01T15:53:41.726Z,1.00
2022-09-01T15:57:50.534Z,1.20
2022-09-01T16:01:58.373Z,0.90
2022-09-01T16:06:08.047Z,0.70
2022-09-01T16:10:15.784Z,1.00
2022-09-01T16:14:23.872Z,0.90
2022-09-01T16:18:41.014Z,0.80
2022-09-01T16:22:54.151Z,0.90
2022-09-01T16:27:03.415Z,1.10
2022-09-01T16:31:15.942Z,0.80
2022-09-01T16:35:29.417Z,0.90
2022-09-01T16:39:46.092Z,0.80
2022-09-01T16:43:58.420Z,1.10
2022-09-01T16:48:10.763Z,1.30
2022-09-01T16:52:24.309Z,0.90
2022-09-01T16:56:36.118Z,0.90
2022-09-01T17:00:56.418Z,0.80
2022-09-01T17:05:13.763Z,0.90
2022-09-01T17:09:26.110Z,0.80
2022-09-01T17:13:38.999Z,0.90
2022-09-01T17:17:51.000Z,1.00
2022-09-01T17:22:05.668Z,1.00
2022-09-01T17:26:21.086Z,1.20
2022-09-01T17:30:31.954Z,1.00
2022-09-01T17:34:47.059Z,1.00
2022-09-01T17:39:02.355Z,0.90
2022-09-01T17:43:18.309Z,0.90
2022-09-01T17:47:35.982Z,0.90
2022-09-01T17:51:49.882Z,1.00
2022-09-01T17:56:02.155Z,0.90
2022-09-01T18:00:24.006Z,0.90
2022-09-01T18:04:43.784Z,1.20
2022-09-01T18:08:54.176Z,1.20
2022-09-01T18:13:05.963Z,1.20
2022-09-01T18:17:16.892Z,1.70
2022-09-01T18:21:28.687Z,1.30
2022-09-01T18:25:40.960Z,2.20
2022-09-01T18:29:48.954Z,1.40
2022-09-01T18:34:05.686Z,1.30
2022-09-01T18:38:24.500Z,1.60
2022-09-01T18:42:37.497Z,1.30
2022-09-01T18:46:49.529Z,1.40
2022-09-01T18:51:02.659Z,1.40
2022-09-01T18:55:25.567Z,1.40
2022-09-01T18:59:48.041Z,1.30
2022-09-01T19:03:59.113Z,1.10
2022-09-01T19:08:17.862Z,1.00
2022-09-01T19:12:42.588Z,1.50
2022-09-01T19:17:00.243Z,1.20
2022-09-01T19:21:14.059Z,1.50
2022-09-01T19:25:42.551Z,1.30
2022-09-01T19:29:53.354Z,1.60
2022-09-01T19:34:05.738Z,1.40
2022-09-01T19:38:19.100Z,1.40
2022-09-01T19:42:34.167Z,1.30
2022-09-01T19:46:48.718Z,1.40
2022-09-01T19:50:59.610Z,1.70
2022-09-01T19:55:15.387Z,1.30
2022-09-01T19:59:28.563Z,1.20
2022-09-01T20:03:40.087Z,1.40
2022-09-01T20:07:55.449Z,1.30
2022-09-01T20:12:12.507Z,1.40
2022-09-01T20:16:27.478Z,1.60
2022-09-01T20:20:40.151Z,1.60
2022-09-01T20:24:48.256Z,2.00
2022-09-01T20:29:01.147Z,1.40
2022-09-01T20:33:18.717Z,1.40
2022-09-01T20:37:35.694Z,1.30
2022-09-01T20:41:49.524Z,1.20
2022-09-01T20:45:58.794Z,1.40
2022-09-01T20:50:15.405Z,1.50
2022-09-01T20:54:34.470Z,1.40
2022-09-01T20:58:48.019Z,1.70
2022-09-01T21:03:02.649Z,1.30
2022-09-01T21:07:15.803Z,1.80
2022-09-01T21:11:33.110Z,1.70
2022-09-01T21:15:48.016Z,1.80
2022-09-01T21:20:05.332Z,1.60
2022-09-01T21:24:14.667Z,1.40
2022-09-01T21:28:28.115Z,1.80
2022-09-01T21:32:38.064Z,1.60
2022-09-01T21:36:46.144Z,2.00
2022-09-01T21:40:56.173Z,1.80
2022-09-01T21:45:06.170Z,1.80
2022-09-01T21:49:15.645Z,1.50
2022-09-01T21:53:24.221Z,1.60
2022-09-01T21:57:32.846Z,1.60
2022-09-01T22:01:43.023Z,1.70
2022-09-01T22:05:51.697Z,1.90
2022-09-01T22:10:01.484Z,1.80
2022-09-01T22:14:10.154Z,1.80
2022-09-01T22:18:20.246Z,1.90
2022-09-01T22:22:29.327Z,2.00
2022-09-01T22:26:37.833Z,1.70
2022-09-01T22:30:49.744Z,1.90
2022-09-01T22:34:58.012Z,2.20
2022-09-01T22:39:07.684Z,2.00
2022-09-01T22:43:18.689Z,2.50
2022-09-01T22:47:27.064Z,2.20
2022-09-01T22:51:36.096Z,2.00
2022-09-01T22:55:45.769Z,1.80
2022-09-01T22:59:54.202Z,2.20
2022-09-01T23:04:05.046Z,2.00
2022-09-01T23:08:14.277Z,2.00
2022-09-01T23:12:23.159Z,2.50
2022-09-01T23:16:31.625Z,2.50
2022-09-01T23:20:40.099Z,2.60
2022-09-01T23:24:48.674Z,2.60
2022-09-01T23:28:57.142Z,3.10
2022-09-01T23:33:07.109Z,3.40
2022-09-01T23:37:15.378Z,3.00
2022-09-01T23:41:28.928Z,2.90
2022-09-01T23:45:41.639Z,2.90
2022-09-01T23:49:50.443Z,2.60
2022-09-01T23:53:59.119Z,2.80
2022-09-01T23:58:07.253Z,2.90
